createdAt,value
2019-06-01T00:00:18.897Z,0.00
2019-06-01T00:01:19.096Z,0.00
2019-06-01T00:02:19.415Z,0.00
2019-06-01T00:03:19.506Z,0.00
2019-06-01T00:04:19.718Z,0.00
2019-06-01T00:05:19.977Z,0.00
2019-06-01T00:06:20.049Z,0.00
2019-06-01T00:07:20.255Z,0.00
2019-06-01T00:08:20.473Z,0.00
2019-06-01T00:09:20.679Z,0.00
2019-06-01T00:10:20.890Z,0.00
2019-06-01T00:11:21.102Z,0.00
2019-06-01T00:12:21.302Z,0.00
2019-06-01T00:13:21.512Z,0.00
2019-06-01T00:14:21.715Z,0.00
2019-06-01T00:15:21.929Z,0.00
2019-06-01T00:16:22.147Z,0.00
2019-06-01T00:17:22.386Z,0.00
2019-06-01T00:18:22.624Z,0.00
2019-06-01T00:19:22.710Z,0.00
2019-06-01T00:20:24.536Z,0.00
2019-06-01T00:21:23.122Z,0.00
2019-06-01T00:22:23.326Z,0.00
2019-06-01T00:23:23.555Z,0.00
2019-06-01T00:24:25.544Z,0.00
2019-06-01T00:25:23.985Z,0.00
2019-06-01T00:26:24.195Z,0.00
2019-06-01T00:27:24.418Z,0.00
2019-06-01T00:28:24.627Z,0.00
2019-06-01T00:29:24.836Z,0.00
2019-06-01T00:30:27.383Z,0.00
2019-06-01T00:31:25.263Z,0.00
2019-06-01T00:32:25.467Z,0.00
2019-06-01T00:33:25.690Z,0.00
2019-06-01T00:34:25.892Z,0.00
2019-06-01T00:35:26.094Z,0.00
2019-06-01T00:36:26.312Z,0.00
2019-06-01T00:37:26.519Z,0.00
2019-06-01T00:38:26.735Z,0.00
2019-06-01T00:39:26.941Z,0.00
2019-06-01T00:40:27.156Z,0.00
2019-06-01T00:41:27.371Z,0.00
2019-06-01T00:42:27.583Z,0.00
2019-06-01T00:43:27.789Z,0.00
2019-06-01T00:44:28.008Z,0.00
2019-06-01T00:45:28.213Z,0.00
2019-06-01T00:46:28.428Z,0.00
2019-06-01T00:47:28.638Z,0.00
2019-06-01T00:48:28.839Z,0.00
2019-06-01T00:49:29.048Z,0.00
2019-06-01T00:50:29.253Z,0.00
2019-06-01T00:51:31.037Z,0.00
2019-06-01T00:52:29.624Z,0.00
2019-06-01T00:53:29.830Z,0.00
2019-06-01T00:54:30.055Z,0.00
2019-06-01T00:55:32.036Z,0.00
2019-06-01T00:56:30.494Z,0.00
2019-06-01T00:57:30.693Z,0.00
2019-06-01T00:58:30.900Z,0.00
2019-06-01T00:59:31.478Z,0.00
2019-06-01T01:00:43.246Z,0.00
2019-06-01T01:01:31.560Z,0.00
2019-06-01T01:02:31.761Z,0.00
2019-06-01T01:03:31.974Z,0.00
2019-06-01T01:04:32.176Z,0.00
2019-06-01T01:05:32.402Z,0.00
2019-06-01T01:06:32.585Z,0.00
2019-06-01T01:07:32.801Z,0.00
2019-06-01T01:08:32.996Z,0.00
2019-06-01T01:09:33.286Z,0.00
2019-06-01T01:10:33.408Z,0.00
2019-06-01T01:11:33.638Z,0.00
2019-06-01T01:12:33.887Z,0.00
2019-06-01T01:13:35.051Z,0.00
2019-06-01T01:14:36.031Z,0.00
2019-06-01T01:15:34.497Z,0.00
2019-06-01T01:16:34.704Z,0.00
2019-06-01T01:17:34.916Z,0.00
2019-06-01T01:18:35.124Z,0.00
2019-06-01T01:19:35.344Z,0.00
2019-06-01T01:20:35.547Z,0.00
2019-06-01T01:21:35.819Z,0.00
2019-06-01T01:22:36.008Z,0.00
2019-06-01T01:23:36.188Z,0.00
2019-06-01T01:24:36.400Z,0.00
2019-06-01T01:25:36.700Z,0.00
2019-06-01T01:26:36.865Z,0.00
2019-06-01T01:27:36.988Z,0.00
2019-06-01T01:28:37.199Z,0.00
2019-06-01T01:29:37.415Z,0.00
2019-06-01T01:30:37.624Z,0.00
2019-06-01T01:31:39.608Z,0.00
2019-06-01T01:32:38.028Z,0.00
2019-06-01T01:33:38.227Z,0.00
2019-06-01T01:34:38.447Z,0.00
2019-06-01T01:35:38.660Z,0.00
2019-06-01T01:36:38.867Z,0.00
2019-06-01T01:37:39.098Z,0.00
2019-06-01T01:38:41.049Z,0.00
2019-06-01T01:39:39.493Z,0.00
2019-06-01T01:40:39.709Z,0.00
2019-06-01T01:41:39.919Z,0.00
2019-06-01T01:42:40.165Z,0.00
2019-06-01T01:43:40.252Z,0.00
2019-06-01T01:44:40.454Z,0.00
2019-06-01T01:45:40.776Z,0.00
2019-06-01T01:46:40.862Z,0.00
2019-06-01T01:47:41.124Z,0.00
2019-06-01T01:48:41.308Z,0.00
2019-06-01T01:49:41.518Z,0.00
2019-06-01T01:50:41.729Z,0.00
2019-06-01T01:51:41.945Z,0.00
2019-06-01T01:52:42.198Z,0.00
2019-06-01T01:53:49.077Z,0.00
2019-06-01T01:54:44.052Z,0.00
2019-06-01T01:55:46.545Z,0.00
2019-06-01T01:56:42.748Z,0.00
2019-06-01T01:57:42.963Z,0.00
2019-06-01T01:58:43.164Z,0.00
2019-06-01T01:59:43.381Z,0.00
2019-06-01T02:00:43.584Z,0.00
2019-06-01T02:01:43.782Z,0.00
2019-06-01T02:02:43.993Z,0.00
2019-06-01T02:03:44.206Z,0.00
2019-06-01T02:04:44.411Z,0.00
2019-06-01T02:05:44.618Z,0.00
2019-06-01T02:06:44.815Z,0.00
2019-06-01T02:07:46.567Z,0.00
2019-06-01T02:08:47.041Z,0.00
2019-06-01T02:09:47.038Z,0.00
2019-06-01T02:10:45.509Z,0.00
2019-06-01T02:11:45.723Z,0.00
2019-06-01T02:12:45.927Z,0.00
2019-06-01T02:13:46.140Z,0.00
2019-06-01T02:14:46.346Z,0.00
2019-06-01T02:15:46.546Z,0.00
2019-06-01T02:16:46.760Z,0.00
2019-06-01T02:17:46.966Z,0.00
2019-06-01T02:18:47.191Z,0.00
2019-06-01T02:19:47.387Z,0.00
2019-06-01T02:20:49.536Z,0.00
2019-06-01T02:21:50.556Z,0.00
2019-06-01T02:22:47.888Z,0.00
2019-06-01T02:23:48.097Z,0.00
2019-06-01T02:24:48.295Z,0.00
2019-06-01T02:25:48.495Z,0.00
2019-06-01T02:26:48.739Z,0.00
2019-06-01T02:27:48.917Z,0.00
2019-06-01T02:28:49.130Z,0.00
2019-06-01T02:29:49.346Z,0.00
2019-06-01T02:30:51.552Z,0.00
2019-06-01T02:31:49.773Z,0.00
2019-06-01T02:32:49.979Z,0.00
2019-06-01T02:33:50.092Z,4.00
2019-06-01T02:34:50.302Z,4.00
2019-06-01T02:35:50.513Z,4.00
2019-06-01T02:36:50.734Z,4.00
2019-06-01T02:37:50.937Z,4.00
2019-06-01T02:38:51.146Z,4.00
2019-06-01T02:39:51.357Z,4.00
2019-06-01T02:40:51.563Z,8.00
2019-06-01T02:41:51.774Z,4.00
2019-06-01T02:42:51.980Z,8.00
2019-06-01T02:43:54.745Z,8.00
2019-06-01T02:44:52.403Z,12.00
2019-06-01T02:45:52.598Z,12.00
2019-06-01T02:46:52.813Z,12.00
2019-06-01T02:47:53.012Z,12.00
2019-06-01T02:48:53.216Z,12.00
2019-06-01T02:49:53.443Z,16.00
2019-06-01T02:50:53.644Z,20.00
2019-06-01T02:51:55.039Z,20.00
2019-06-01T02:52:55.434Z,24.00
2019-06-01T02:53:55.501Z,28.00
2019-06-01T02:54:55.568Z,32.00
2019-06-01T02:55:55.735Z,36.00
2019-06-01T02:56:55.778Z,40.00
2019-06-01T02:57:56.542Z,44.00
2019-06-01T02:58:56.093Z,48.00
2019-06-01T02:59:56.302Z,56.00
2019-06-01T03:00:56.567Z,64.00
2019-06-01T03:01:58.198Z,72.00
2019-06-01T03:02:56.582Z,80.00
2019-06-01T03:03:59.528Z,88.00
2019-06-01T03:04:57.054Z,96.00
2019-06-01T03:05:57.422Z,108.00
2019-06-01T03:06:59.524Z,116.00
2019-06-01T03:07:57.294Z,128.00
2019-06-01T03:08:57.710Z,140.00
2019-06-01T03:09:58.711Z,156.00
2019-06-01T03:10:59.729Z,172.00
2019-06-01T03:12:00.367Z,192.00
2019-06-01T03:12:58.168Z,208.00
2019-06-01T03:13:58.313Z,232.00
2019-06-01T03:14:58.483Z,252.00
2019-06-01T03:15:58.697Z,272.00
2019-06-01T03:16:59.775Z,304.00
2019-06-01T03:17:59.433Z,328.00
2019-06-01T03:18:59.657Z,356.00
2019-06-01T03:19:59.618Z,388.00
2019-06-01T03:21:01.701Z,424.00
2019-06-01T03:21:59.747Z,456.00
2019-06-01T03:22:59.961Z,496.00
2019-06-01T03:24:00.184Z,528.00
2019-06-01T03:25:00.397Z,564.00
2019-06-01T03:26:01.964Z,608.00
2019-06-01T03:27:02.882Z,648.00
2019-06-01T03:28:02.106Z,696.00
2019-06-01T03:29:03.236Z,732.00
2019-06-01T03:30:03.927Z,772.00
2019-06-01T03:31:03.551Z,804.00
2019-06-01T03:32:26.191Z,844.00
2019-06-01T03:33:06.125Z,868.00
2019-06-01T03:34:04.462Z,900.00
2019-06-01T03:35:02.900Z,936.00
2019-06-01T03:36:02.837Z,968.00
2019-06-01T03:37:02.968Z,1008.00
2019-06-01T03:38:03.094Z,1012.00
2019-06-01T03:39:03.994Z,1032.00
2019-06-01T03:40:06.800Z,1052.00
2019-06-01T03:41:04.022Z,1060.00
2019-06-01T03:42:05.125Z,1120.00
2019-06-01T03:43:04.355Z,1160.00
2019-06-01T03:44:04.500Z,1180.00
2019-06-01T03:45:05.504Z,1172.00
2019-06-01T03:46:04.776Z,1180.00
2019-06-01T03:47:07.585Z,1176.00
2019-06-01T03:48:05.114Z,1152.00
2019-06-01T03:49:05.761Z,1132.00
2019-06-01T03:50:06.806Z,1128.00
2019-06-01T03:51:05.785Z,1132.00
2019-06-01T03:52:06.929Z,1140.00
2019-06-01T03:53:06.165Z,1164.00
2019-06-01T03:54:06.907Z,1156.00
2019-06-01T03:55:08.547Z,1104.00
2019-06-01T03:56:06.992Z,1020.00
2019-06-01T03:57:07.285Z,1016.00
2019-06-01T03:58:07.304Z,1000.00
2019-06-01T03:59:07.380Z,1008.00
2019-06-01T04:00:09.565Z,1060.00
2019-06-01T04:01:07.742Z,1116.00
2019-06-01T04:02:09.118Z,1180.00
2019-06-01T04:03:09.219Z,1260.00
2019-06-01T04:04:09.348Z,1316.00
2019-06-01T04:05:09.344Z,1352.00
2019-06-01T04:06:09.456Z,1380.00
2019-06-01T04:07:10.625Z,1416.00
2019-06-01T04:08:09.692Z,1452.00
2019-06-01T04:09:09.928Z,1480.00
2019-06-01T04:10:11.853Z,1484.00
2019-06-01T04:11:09.875Z,1484.00
2019-06-01T04:12:09.963Z,1520.00
2019-06-01T04:13:12.040Z,1564.00
2019-06-01T04:14:12.067Z,1616.00
2019-06-01T04:15:14.594Z,1696.00
2019-06-01T04:16:12.547Z,1772.00
2019-06-01T04:17:12.153Z,1884.00
2019-06-01T04:18:13.961Z,2036.00
2019-06-01T04:19:12.199Z,2232.00
2019-06-01T04:20:12.336Z,2384.00
2019-06-01T04:21:13.547Z,2496.00
2019-06-01T04:22:12.217Z,2608.00
2019-06-01T04:23:12.423Z,2736.00
2019-06-01T04:24:12.414Z,2832.00
2019-06-01T04:25:12.491Z,2896.00
2019-06-01T04:26:16.549Z,2960.00
2019-06-01T04:27:14.554Z,3028.00
2019-06-01T04:28:13.013Z,3012.00
2019-06-01T04:29:13.214Z,2920.00
2019-06-01T04:30:13.698Z,2828.00
2019-06-01T04:31:13.638Z,2716.00
2019-06-01T04:32:13.850Z,2644.00
2019-06-01T04:33:14.068Z,2588.00
2019-06-01T04:34:14.271Z,2520.00
2019-06-01T04:35:14.492Z,2480.00
2019-06-01T04:36:16.557Z,2484.00
2019-06-01T04:37:16.543Z,2492.00
2019-06-01T04:38:15.132Z,2488.00
2019-06-01T04:39:15.336Z,2432.00
2019-06-01T04:40:15.545Z,2328.00
2019-06-01T04:41:15.772Z,2252.00
2019-06-01T04:42:15.966Z,2244.00
2019-06-01T04:43:16.247Z,2264.00
2019-06-01T04:44:18.476Z,2252.00
2019-06-01T04:45:16.517Z,2268.00
2019-06-01T04:46:16.736Z,2300.00
2019-06-01T04:47:16.941Z,2352.00
2019-06-01T04:48:17.160Z,2364.00
2019-06-01T04:49:17.383Z,2356.00
2019-06-01T04:50:20.564Z,2368.00
2019-06-01T04:51:17.771Z,2408.00
2019-06-01T04:52:18.020Z,2412.00
2019-06-01T04:53:18.196Z,2352.00
2019-06-01T04:54:18.406Z,2340.00
2019-06-01T04:55:18.612Z,2472.00
2019-06-01T04:56:18.828Z,2628.00
2019-06-01T04:57:19.035Z,2592.00
2019-06-01T04:58:19.251Z,2664.00
2019-06-01T04:59:21.063Z,2812.00
2019-06-01T05:00:27.280Z,2888.00
2019-06-01T05:01:19.741Z,2872.00
2019-06-01T05:02:19.942Z,2896.00
2019-06-01T05:03:22.104Z,2916.00
2019-06-01T05:04:20.281Z,2920.00
2019-06-01T05:05:20.496Z,2860.00
2019-06-01T05:06:20.712Z,2844.00
2019-06-01T05:07:20.914Z,2896.00
2019-06-01T05:08:23.080Z,2912.00
2019-06-01T05:09:23.057Z,2932.00
2019-06-01T05:10:23.047Z,3032.00
2019-06-01T05:11:21.515Z,3096.00
2019-06-01T05:12:21.719Z,3192.00
2019-06-01T05:13:21.976Z,3272.00
2019-06-01T05:14:22.163Z,3260.00
2019-06-01T05:15:22.384Z,3192.00
2019-06-01T05:16:22.595Z,3104.00
2019-06-01T05:17:22.809Z,3076.00
2019-06-01T05:18:23.016Z,3052.00
2019-06-01T05:19:23.230Z,3036.00
2019-06-01T05:20:23.439Z,3040.00
2019-06-01T05:21:23.718Z,3068.00
2019-06-01T05:22:23.791Z,3116.00
2019-06-01T05:23:24.005Z,3176.00
2019-06-01T05:24:24.207Z,3224.00
2019-06-01T05:25:24.429Z,3284.00
2019-06-01T05:26:24.644Z,3368.00
2019-06-01T05:27:24.882Z,3508.00
2019-06-01T05:28:24.964Z,3620.00
2019-06-01T05:29:25.233Z,3724.00
2019-06-01T05:30:25.415Z,3800.00
2019-06-01T05:31:25.631Z,3872.00
2019-06-01T05:32:25.842Z,4000.00
2019-06-01T05:33:37.022Z,4116.00
2019-06-01T05:34:26.266Z,4216.00
2019-06-01T05:35:26.479Z,4312.00
2019-06-01T05:36:26.684Z,4356.00
2019-06-01T05:37:28.551Z,4416.00
2019-06-01T05:38:27.005Z,4492.00
2019-06-01T05:39:27.220Z,4520.00
2019-06-01T05:40:27.424Z,4560.00
2019-06-01T05:41:27.686Z,4688.00
2019-06-01T05:42:27.886Z,4928.00
2019-06-01T05:43:30.050Z,5232.00
2019-06-01T05:44:28.260Z,5424.00
2019-06-01T05:45:28.476Z,5504.00
2019-06-01T05:46:28.677Z,5568.00
2019-06-01T05:47:28.990Z,5660.00
2019-06-01T05:48:30.793Z,5720.00
2019-06-01T05:49:29.293Z,5896.00
2019-06-01T05:50:31.051Z,6260.00
2019-06-01T05:51:31.564Z,6624.00
2019-06-01T05:52:29.776Z,7160.00
2019-06-01T05:53:31.609Z,7576.00
2019-06-01T05:54:30.344Z,8252.00
2019-06-01T05:55:30.296Z,12320.00
2019-06-01T05:56:30.509Z,10736.00
2019-06-01T05:57:30.725Z,10148.00
2019-06-01T05:58:32.577Z,11832.00
2019-06-01T05:59:31.148Z,12300.00
2019-06-01T06:00:33.125Z,14356.00
2019-06-01T06:01:31.499Z,13296.00
2019-06-01T06:02:33.549Z,14864.00
2019-06-01T06:03:39.923Z,12612.00
2019-06-01T06:04:32.069Z,11812.00
2019-06-01T06:05:32.278Z,10936.00
2019-06-01T06:06:32.491Z,10496.00
2019-06-01T06:07:34.550Z,10768.00
2019-06-01T06:08:32.912Z,10892.00
2019-06-01T06:09:34.553Z,11032.00
2019-06-01T06:10:33.137Z,11280.00
2019-06-01T06:11:33.348Z,11184.00
2019-06-01T06:12:33.555Z,10736.00
2019-06-01T06:13:33.776Z,10448.00
2019-06-01T06:14:34.010Z,10092.00
2019-06-01T06:15:36.094Z,9844.00
2019-06-01T06:16:34.386Z,10028.00
2019-06-01T06:17:36.551Z,10628.00
2019-06-01T06:18:36.564Z,11548.00
2019-06-01T06:19:34.910Z,12672.00
2019-06-01T06:20:35.147Z,14056.00
2019-06-01T06:21:35.273Z,14784.00
2019-06-01T06:22:37.058Z,15768.00
2019-06-01T06:23:39.050Z,19072.00
2019-06-01T06:24:35.651Z,19200.00
2019-06-01T06:25:39.705Z,19072.00
2019-06-01T06:26:36.029Z,21248.00
2019-06-01T06:27:38.062Z,18144.00
2019-06-01T06:28:36.467Z,21888.00
2019-06-01T06:29:40.556Z,20640.00
2019-06-01T06:30:40.573Z,17952.00
2019-06-01T06:31:38.548Z,18400.00
2019-06-01T06:32:37.179Z,17568.00
2019-06-01T06:33:55.575Z,17632.00
2019-06-01T06:34:43.100Z,15992.00
2019-06-01T06:35:40.558Z,15828.00
2019-06-01T06:36:37.936Z,15984.00
2019-06-01T06:37:38.088Z,15948.00
2019-06-01T06:38:40.063Z,15116.00
2019-06-01T06:39:38.525Z,14460.00
2019-06-01T06:40:38.734Z,13828.00
2019-06-01T06:41:40.590Z,13520.00
2019-06-01T06:42:55.057Z,13120.00
2019-06-01T06:43:46.666Z,12740.00
2019-06-01T06:44:41.608Z,12240.00
2019-06-01T06:45:40.920Z,11644.00
2019-06-01T06:46:39.936Z,11284.00
2019-06-01T06:47:40.019Z,11016.00
2019-06-01T06:48:42.054Z,10936.00
2019-06-01T06:49:40.381Z,11920.00
2019-06-01T06:50:40.625Z,11028.00
2019-06-01T06:51:44.567Z,11364.00
2019-06-01T06:52:41.018Z,11316.00
2019-06-01T06:53:43.054Z,11240.00
2019-06-01T06:54:43.058Z,11296.00
2019-06-01T06:55:45.283Z,11320.00
2019-06-01T06:56:41.761Z,11624.00
2019-06-01T06:57:43.023Z,12260.00
2019-06-01T06:58:47.094Z,13176.00
2019-06-01T06:59:44.056Z,13880.00
2019-06-01T07:00:42.644Z,14640.00
2019-06-01T07:01:44.568Z,15088.00
2019-06-01T07:02:44.574Z,15432.00
2019-06-01T07:03:47.082Z,15636.00
2019-06-01T07:04:43.292Z,15344.00
2019-06-01T07:05:45.089Z,14932.00
2019-06-01T07:06:47.563Z,14400.00
2019-06-01T07:07:45.560Z,14672.00
2019-06-01T07:08:49.010Z,14216.00
2019-06-01T07:09:44.279Z,14356.00
2019-06-01T07:10:44.490Z,15460.00
2019-06-01T07:11:44.772Z,16156.00
2019-06-01T07:12:47.169Z,18080.00
2019-06-01T07:13:47.062Z,18240.00
2019-06-01T07:14:45.266Z,19104.00
2019-06-01T07:15:47.070Z,20640.00
2019-06-01T07:16:47.903Z,22880.00
2019-06-01T07:17:47.568Z,21472.00
2019-06-01T07:18:49.608Z,22720.00
2019-06-01T07:19:48.123Z,24480.00
2019-06-01T07:20:48.062Z,27584.00
2019-06-01T07:21:46.838Z,28672.00
2019-06-01T07:22:48.546Z,31008.00
2019-06-01T07:24:07.940Z,26880.00
2019-06-01T07:24:49.074Z,26368.00
2019-06-01T07:25:49.091Z,28064.00
2019-06-01T07:26:49.105Z,36000.00
2019-06-01T07:27:49.090Z,31424.00
2019-06-01T07:28:49.589Z,52704.00
2019-06-01T07:29:49.558Z,34272.00
2019-06-01T07:30:51.143Z,72192.00
2019-06-01T07:31:48.407Z,49824.00
2019-06-01T07:32:51.044Z,31712.00
2019-06-01T07:33:48.643Z,29344.00
2019-06-01T07:34:48.883Z,28384.00
2019-06-01T07:35:55.274Z,37696.00
2019-06-01T07:36:53.065Z,28768.00
2019-06-01T07:37:53.064Z,37024.00
2019-06-01T07:38:50.683Z,36224.00
2019-06-01T07:40:13.868Z,35840.00
2019-06-01T07:40:52.527Z,41216.00
2019-06-01T07:42:13.085Z,39936.00
2019-06-01T07:42:50.379Z,51264.00
2019-06-01T07:43:53.598Z,93632.00
2019-06-01T07:44:50.838Z,70048.00
2019-06-01T07:45:51.046Z,43008.00
2019-06-01T07:47:16.069Z,43648.00
2019-06-01T07:47:53.717Z,50752.00
2019-06-01T07:48:53.595Z,43904.00
2019-06-01T07:49:55.016Z,41824.00
2019-06-01T07:50:53.576Z,108960.00
2019-06-01T07:51:52.264Z,74464.00
2019-06-01T07:52:54.062Z,85600.00
2019-06-01T07:54:00.580Z,105472.00
2019-06-01T07:54:52.852Z,63584.00
2019-06-01T07:55:54.900Z,63616.00
2019-06-01T07:56:55.119Z,98880.00
2019-06-01T07:58:00.067Z,95936.00
2019-06-01T07:58:55.935Z,59488.00
2019-06-01T07:59:53.820Z,96608.00
2019-06-01T08:00:54.077Z,90784.00
2019-06-01T08:01:58.086Z,93120.00
2019-06-01T08:02:56.153Z,81280.00
2019-06-01T08:03:54.750Z,96736.00
2019-06-01T08:04:54.963Z,97440.00
2019-06-01T08:05:56.574Z,93920.00
2019-06-01T08:06:57.152Z,97664.00
2019-06-01T08:08:11.073Z,97824.00
2019-06-01T08:08:58.517Z,101632.00
2019-06-01T08:09:56.801Z,99936.00
2019-06-01T08:11:02.575Z,68224.00
2019-06-01T08:11:59.017Z,92928.00
2019-06-01T08:12:58.108Z,89056.00
2019-06-01T08:13:58.701Z,91360.00
2019-06-01T08:15:01.082Z,92832.00
2019-06-01T08:15:58.575Z,88960.00
2019-06-01T08:16:58.590Z,98944.00
2019-06-01T08:17:57.418Z,99584.00
2019-06-01T08:18:59.239Z,99840.00
2019-06-01T08:20:01.574Z,100832.00
2019-06-01T08:21:01.796Z,87968.00
2019-06-01T08:21:59.710Z,94560.00
2019-06-01T08:22:58.737Z,100672.00
2019-06-01T08:24:02.924Z,103808.00
2019-06-01T08:25:00.733Z,104896.00
2019-06-01T08:26:01.528Z,105984.00
2019-06-01T08:27:02.073Z,104256.00
2019-06-01T08:28:01.171Z,102112.00
2019-06-01T08:29:01.127Z,103136.00
2019-06-01T08:30:00.573Z,103072.00
2019-06-01T08:31:01.575Z,100128.00
2019-06-01T08:32:02.552Z,98240.00
2019-06-01T08:33:08.068Z,84032.00
2019-06-01T08:34:08.512Z,104096.00
2019-06-01T08:35:08.423Z,106848.00
2019-06-01T08:36:02.572Z,97216.00
2019-06-01T08:37:02.953Z,101664.00
2019-06-01T08:38:08.029Z,105280.00
2019-06-01T08:39:02.086Z,108960.00
2019-06-01T08:40:05.072Z,110624.00
2019-06-01T08:41:03.915Z,109056.00
2019-06-01T08:42:01.934Z,106048.00
2019-06-01T08:43:04.577Z,107936.00
2019-06-01T08:44:06.065Z,110816.00
2019-06-01T08:45:02.933Z,111904.00
2019-06-01T08:46:02.681Z,111456.00
2019-06-01T08:47:04.578Z,110912.00
2019-06-01T08:49:38.564Z,112128.00
2019-06-01T08:50:35.022Z,111968.00
2019-06-01T08:51:39.115Z,110880.00
2019-06-01T08:52:37.128Z,108480.00
2019-06-01T08:53:40.257Z,107744.00
2019-06-01T08:54:37.685Z,102272.00
2019-06-01T08:55:38.523Z,105440.00
2019-06-01T08:56:38.734Z,100320.00
2019-06-01T08:57:40.096Z,106688.00
2019-06-01T08:58:37.793Z,106080.00
2019-06-01T08:59:39.654Z,94048.00
2019-06-01T09:00:37.139Z,102720.00
2019-06-01T09:01:39.156Z,100640.00
2019-06-01T09:02:44.153Z,106240.00
2019-06-01T09:03:46.634Z,101888.00
2019-06-01T09:04:38.062Z,91840.00
2019-06-01T09:05:50.237Z,101056.00
2019-06-01T09:06:40.974Z,105472.00
2019-06-01T09:07:40.125Z,114112.00
2019-06-01T09:08:40.582Z,116064.00
2019-06-01T09:09:46.657Z,118944.00
2019-06-01T09:10:40.178Z,116480.00
2019-06-01T09:12:03.096Z,114112.00
2019-06-01T09:12:42.172Z,112640.00
2019-06-01T09:13:42.590Z,111840.00
2019-06-01T09:14:41.573Z,114336.00
2019-06-01T09:15:41.572Z,114272.00
2019-06-01T09:16:44.071Z,116160.00
2019-06-01T09:17:41.046Z,117536.00
2019-06-01T09:18:42.582Z,116864.00
2019-06-01T09:19:43.690Z,115392.00
2019-06-01T09:20:42.640Z,116320.00
2019-06-01T09:21:45.093Z,117760.00
2019-06-01T09:22:48.247Z,117632.00
2019-06-01T09:23:43.570Z,116288.00
2019-06-01T09:24:42.527Z,117952.00
2019-06-01T09:25:46.109Z,113088.00
2019-06-01T09:26:44.155Z,116320.00
2019-06-01T09:27:46.265Z,110752.00
2019-06-01T09:28:44.355Z,108192.00
2019-06-01T09:29:44.761Z,101440.00
2019-06-01T09:30:47.202Z,102816.00
2019-06-01T09:31:43.301Z,110016.00
2019-06-01T09:32:45.102Z,109504.00
2019-06-01T09:33:43.710Z,111552.00
2019-06-01T09:34:45.023Z,112544.00
2019-06-01T09:35:54.525Z,102560.00
2019-06-01T09:36:48.174Z,113728.00
2019-06-01T09:38:07.547Z,104640.00
2019-06-01T09:38:44.879Z,106272.00
2019-06-01T09:39:47.144Z,115584.00
2019-06-01T09:41:08.419Z,116768.00
2019-06-01T09:41:49.121Z,115232.00
2019-06-01T09:42:47.607Z,115264.00
2019-06-01T09:43:51.907Z,113312.00
2019-06-01T09:44:50.088Z,112832.00
2019-06-01T09:45:53.121Z,115488.00
2019-06-01T09:46:48.100Z,119072.00
2019-06-01T09:47:46.954Z,121632.00
2019-06-01T09:48:48.074Z,124352.00
2019-06-01T09:49:51.602Z,127680.00
2019-06-01T09:50:49.083Z,127328.00
2019-06-01T09:51:49.065Z,124672.00
2019-06-01T09:52:49.728Z,119936.00
2019-06-01T09:53:52.614Z,118560.00
2019-06-01T09:54:49.687Z,114528.00
2019-06-01T09:55:50.059Z,113088.00
2019-06-01T09:56:48.319Z,110144.00
2019-06-01T09:57:57.003Z,109760.00
2019-06-01T09:58:50.660Z,109408.00
2019-06-01T09:59:50.675Z,108736.00
2019-06-01T10:00:51.130Z,110560.00
2019-06-01T10:01:50.403Z,110656.00
2019-06-01T10:02:55.457Z,111744.00
2019-06-01T10:03:52.083Z,113664.00
2019-06-01T10:04:50.114Z,112704.00
2019-06-01T10:06:01.326Z,110784.00
2019-06-01T10:06:57.091Z,113312.00
2019-06-01T10:07:52.094Z,113632.00
2019-06-01T10:08:54.607Z,108128.00
2019-06-01T10:09:52.597Z,101536.00
2019-06-01T10:10:53.533Z,107264.00
2019-06-01T10:11:55.201Z,106496.00
2019-06-01T10:12:53.077Z,97600.00
2019-06-01T10:13:52.786Z,112128.00
2019-06-01T10:14:51.932Z,114624.00
2019-06-01T10:15:54.102Z,114016.00
2019-06-01T10:16:59.208Z,111040.00
2019-06-01T10:17:54.131Z,110272.00
2019-06-01T10:18:54.204Z,109056.00
2019-06-01T10:19:56.573Z,108256.00
2019-06-01T10:20:57.083Z,107712.00
2019-06-01T10:21:55.043Z,107584.00
2019-06-01T10:23:00.075Z,107712.00
2019-06-01T10:23:55.632Z,105088.00
2019-06-01T10:25:14.903Z,105600.00
2019-06-01T10:25:55.172Z,103328.00
2019-06-01T10:26:56.098Z,102368.00
2019-06-01T10:27:55.610Z,101760.00
2019-06-01T10:28:57.562Z,102432.00
2019-06-01T10:30:00.524Z,102560.00
2019-06-01T10:30:56.031Z,104032.00
2019-06-01T10:32:00.119Z,105952.00
2019-06-01T10:32:57.265Z,107552.00
2019-06-01T10:33:57.662Z,105696.00
2019-06-01T10:34:57.897Z,104064.00
2019-06-01T10:35:57.114Z,103488.00
2019-06-01T10:36:58.078Z,94112.00
2019-06-01T10:37:56.542Z,103104.00
2019-06-01T10:38:58.643Z,105664.00
2019-06-01T10:39:56.884Z,104736.00
2019-06-01T10:40:59.134Z,103936.00
2019-06-01T10:41:59.167Z,103456.00
2019-06-01T10:43:04.087Z,103296.00
2019-06-01T10:44:01.093Z,103040.00
2019-06-01T10:44:59.601Z,103808.00
2019-06-01T10:45:59.091Z,105184.00
2019-06-01T10:46:58.060Z,103520.00
2019-06-01T10:47:59.784Z,106304.00
2019-06-01T10:49:00.282Z,109248.00
2019-06-01T10:50:01.478Z,110016.00
2019-06-01T10:51:00.419Z,111296.00
2019-06-01T10:52:05.246Z,111136.00
2019-06-01T10:53:00.762Z,111840.00
2019-06-01T10:54:01.487Z,114240.00
2019-06-01T10:55:05.718Z,115776.00
2019-06-01T10:56:01.623Z,115904.00
2019-06-01T10:57:15.692Z,116096.00
2019-06-01T10:58:01.354Z,118336.00
2019-06-01T10:59:06.714Z,125568.00
2019-06-01T11:00:04.358Z,127008.00
2019-06-01T11:01:01.669Z,93312.00
2019-06-01T11:02:02.621Z,47648.00
2019-06-01T11:03:06.369Z,26816.00
2019-06-01T11:04:07.185Z,21760.00
2019-06-01T11:05:01.544Z,20832.00
2019-06-01T11:06:03.779Z,19744.00
2019-06-01T11:07:04.109Z,18336.00
2019-06-01T11:08:04.172Z,17152.00
2019-06-01T11:09:04.149Z,15928.00
2019-06-01T11:10:03.618Z,14416.00
2019-06-01T11:11:03.819Z,13324.00
2019-06-01T11:12:09.576Z,12600.00
2019-06-01T11:13:12.142Z,12440.00
2019-06-01T11:14:05.085Z,12380.00
2019-06-01T11:15:05.831Z,12436.00
2019-06-01T11:16:03.770Z,12424.00
2019-06-01T11:17:11.665Z,12332.00
2019-06-01T11:18:07.049Z,12244.00
2019-06-01T11:19:05.715Z,12088.00
2019-06-01T11:20:08.580Z,11804.00
2019-06-01T11:21:33.508Z,11652.00
2019-06-01T11:22:06.596Z,11584.00
2019-06-01T11:23:07.075Z,11704.00
2019-06-01T11:24:05.413Z,11912.00
2019-06-01T11:25:07.685Z,12260.00
2019-06-01T11:26:07.578Z,12496.00
2019-06-01T11:27:06.824Z,12692.00
2019-06-01T11:28:10.011Z,12780.00
2019-06-01T11:29:11.063Z,12928.00
2019-06-01T11:30:09.080Z,13096.00
2019-06-01T11:31:06.535Z,13268.00
2019-06-01T11:32:08.664Z,13564.00
2019-06-01T11:33:09.261Z,13784.00
2019-06-01T11:34:09.219Z,13924.00
2019-06-01T11:35:09.164Z,14024.00
2019-06-01T11:36:11.219Z,14168.00
2019-06-01T11:37:09.628Z,14556.00
2019-06-01T11:38:07.834Z,14876.00
2019-06-01T11:39:08.084Z,15004.00
2019-06-01T11:40:08.224Z,15116.00
2019-06-01T11:41:10.148Z,15272.00
2019-06-01T11:42:12.573Z,15528.00
2019-06-01T11:43:09.915Z,15784.00
2019-06-01T11:44:09.038Z,15816.00
2019-06-01T11:45:09.596Z,15972.00
2019-06-01T11:46:09.999Z,15952.00
2019-06-01T11:47:10.604Z,15904.00
2019-06-01T11:48:16.991Z,16076.00
2019-06-01T11:49:11.607Z,16144.00
2019-06-01T11:50:12.571Z,16004.00
2019-06-01T11:51:10.333Z,15912.00
2019-06-01T11:52:11.593Z,15720.00
2019-06-01T11:53:12.580Z,15504.00
2019-06-01T11:54:12.584Z,15312.00
2019-06-01T11:55:14.600Z,15172.00
2019-06-01T11:56:13.105Z,15008.00
2019-06-01T11:57:11.651Z,14932.00
2019-06-01T11:58:15.764Z,14928.00
2019-06-01T11:59:13.663Z,15008.00
2019-06-01T12:00:13.036Z,15124.00
2019-06-01T12:01:15.162Z,15228.00
2019-06-01T12:02:12.439Z,15200.00
2019-06-01T12:03:12.533Z,15348.00
2019-06-01T12:04:13.769Z,15176.00
2019-06-01T12:05:12.954Z,14688.00
2019-06-01T12:06:15.100Z,14532.00
2019-06-01T12:07:17.907Z,14256.00
2019-06-01T12:08:15.087Z,14744.00
2019-06-01T12:09:13.735Z,14816.00
2019-06-01T12:10:13.917Z,15076.00